TAF KPIR
KPIR 081725Z 0818/0918 14011KT P6SM SCT250 FM090300 VRB05KT P6SM BKN200 FM091300 31014G22KT P6SM BKN200=
METAR KPIR
WC KPIR
WS KPIR
WV KPIR